Time;durP1;ratioP1;P1;durP2;ratioP2;P2;SDS_P1;SDS_P2;PMS_P1;PMS_P2;Temp;Humidity;BMP_temperature;BMP_pressure;BME280_temperature;BME280_humidity;BME280_pressure;Samples;Min_cycle;Max_cycle;Signal;HPM_P1;HPM_P2
2023/09/14 00:01:43;;;;;;;6.22;1.40;;;15.40;99.90;;;;;;5093940;28;20176;-78
2023/09/14 00:04:09;;;;;;;5.40;1.65;;;15.40;99.90;;;;;;5094608;28;20036;-78
2023/09/14 00:06:34;;;;;;;7.82;1.85;;;15.40;99.90;;;;;;5093808;28;20107;-79
2023/09/14 00:09:00;;;;;;;11.25;2.15;;;15.30;99.90;;;;;;5094237;28;20024;-76
2023/09/14 00:11:26;;;;;;;10.38;2.38;;;15.30;99.90;;;;;;5094345;28;20155;-77
2023/09/14 00:13:51;;;;;;;7.45;1.58;;;15.30;99.90;;;;;;5093764;28;20031;-77
2023/09/14 00:16:17;;;;;;;8.27;1.80;;;15.30;99.90;;;;;;5094696;28;20080;-77
2023/09/14 00:18:43;;;;;;;5.65;1.75;;;15.20;99.90;;;;;;5093813;28;20480;-76
2023/09/14 00:21:09;;;;;;;10.27;2.47;;;15.20;99.90;;;;;;5093921;28;20024;-77
2023/09/14 00:23:34;;;;;;;9.27;1.92;;;15.20;99.90;;;;;;5093581;28;20028;-77
2023/09/14 00:26:00;;;;;;;12.52;2.00;;;15.20;99.90;;;;;;5093909;28;20380;-77
2023/09/14 00:28:26;;;;;;;7.85;2.80;;;15.10;99.90;;;;;;5094254;28;20108;-77
2023/09/14 00:30:55;;;;;;;9.57;2.03;;;15.10;99.90;;;;;;5093909;28;20046;-77
2023/09/14 00:33:22;;;;;;;15.23;2.30;;;15.10;99.90;;;;;;5075720;28;20146;-78
2023/09/14 00:35:48;;;;;;;7.43;2.10;;;15.10;99.90;;;;;;5093476;28;20079;-77
2023/09/14 00:38:14;;;;;;;10.18;2.20;;;15.10;99.90;;;;;;5094197;28;20115;-76
2023/09/14 00:40:41;;;;;;;11.50;2.30;;;15.10;99.90;;;;;;5093250;28;20046;-77
2023/09/14 00:43:07;;;;;;;9.07;2.38;;;15.00;99.90;;;;;;5093942;28;20028;-78
2023/09/14 00:45:33;;;;;;;12.25;2.30;;;15.00;99.90;;;;;;5093887;28;20020;-77
2023/09/14 00:48:02;;;;;;;11.60;2.47;;;14.90;99.90;;;;;;5093002;28;20096;-77
2023/09/14 00:50:29;;;;;;;11.25;2.30;;;14.90;99.90;;;;;;5093965;28;20020;-76
2023/09/14 00:52:57;;;;;;;9.57;2.17;;;14.90;99.90;;;;;;5093687;28;20333;-76
2023/09/14 00:55:23;;;;;;;10.00;2.20;;;14.80;99.90;;;;;;5075526;28;20028;-76
2023/09/14 00:57:50;;;;;;;11.77;2.70;;;14.80;99.90;;;;;;5092414;28;20107;-77
2023/09/14 01:00:17;;;;;;;7.50;1.95;;;14.80;99.90;;;;;;5093291;28;20134;-76
2023/09/14 01:02:43;;;;;;;9.88;2.20;;;14.80;99.90;;;;;;5074836;28;20031;-76
2023/09/14 01:05:11;;;;;;;10.60;2.42;;;14.80;99.90;;;;;;5093692;28;20054;-77
2023/09/14 01:07:37;;;;;;;10.30;2.35;;;14.70;99.90;;;;;;5093181;28;20040;-79
2023/09/14 01:10:06;;;;;;;9.43;2.35;;;14.70;99.90;;;;;;5093087;28;20050;-77
2023/09/14 01:12:32;;;;;;;9.23;2.20;;;14.70;99.90;;;;;;5093628;28;20106;-77
2023/09/14 01:15:15;;;;;;;12.73;2.67;;;14.70;99.90;;;;;;5092718;28;20028;-77
2023/09/14 01:17:59;;;;;;;8.45;2.30;;;14.70;99.90;;;;;;5093002;28;20028;-77
2023/09/14 01:21:00;;;;;;;9.23;2.42;;;14.70;99.90;;;;;;5093288;28;20076;-77
2023/09/14 01:23:57;;;;;;;9.00;2.65;;;14.70;99.90;;;;;;5088152;28;20040;-77
2023/09/14 01:26:24;;;;;;;9.23;2.13;;;14.70;99.90;;;;;;5058184;28;20040;-77
2023/09/14 01:28:50;;;;;;;17.33;2.42;;;14.70;99.90;;;;;;5092458;28;20130;-77
2023/09/14 01:31:16;;;;;;;10.90;2.08;;;14.70;99.90;;;;;;5093078;28;20141;-77
2023/09/14 01:33:42;;;;;;;11.52;2.28;;;14.60;99.90;;;;;;5073888;28;20039;-78
2023/09/14 01:36:15;;;;;;;8.23;2.67;;;14.60;99.90;;;;;;5074674;28;20031;-77
2023/09/14 01:38:42;;;;;;;9.80;2.63;;;14.60;99.90;;;;;;5092451;28;20032;-77
2023/09/14 01:41:09;;;;;;;8.68;2.53;;;14.60;99.90;;;;;;5093056;28;20024;-77
2023/09/14 01:43:36;;;;;;;13.43;2.38;;;14.60;99.90;;;;;;5092709;28;20119;-77
2023/09/14 01:46:03;;;;;;;9.15;2.33;;;14.60;99.90;;;;;;5073867;28;20027;-77
2023/09/14 01:48:29;;;;;;;15.32;2.63;;;14.50;99.90;;;;;;5092591;28;20085;-77
2023/09/14 01:50:55;;;;;;;9.40;2.10;;;14.50;99.90;;;;;;5092172;28;20031;-77
2023/09/14 01:53:21;;;;;;;14.05;2.70;;;14.50;99.90;;;;;;5092483;28;20020;-77
2023/09/14 01:55:46;;;;;;;11.90;2.45;;;14.50;99.90;;;;;;5092026;28;20040;-78
2023/09/14 01:58:12;;;;;;;13.63;2.30;;;14.50;99.90;;;;;;5092329;28;20346;-77
2023/09/14 02:00:38;;;;;;;11.85;2.83;;;14.50;99.90;;;;;;5091862;28;20024;-78
2023/09/14 02:03:04;;;;;;;10.73;2.08;;;14.50;99.90;;;;;;5092222;28;20036;-76
2023/09/14 02:05:30;;;;;;;10.68;2.35;;;14.50;99.90;;;;;;5091800;28;20024;-76
2023/09/14 02:07:56;;;;;;;10.50;2.05;;;14.50;99.90;;;;;;5091614;28;20085;-77
2023/09/14 02:10:22;;;;;;;10.45;2.90;;;14.50;99.90;;;;;;5073725;28;20024;-77
2023/09/14 02:12:51;;;;;;;11.77;2.70;;;14.50;99.90;;;;;;5091480;28;20491;-77
2023/09/14 02:15:17;;;;;;;11.85;2.47;;;14.50;99.90;;;;;;5092027;28;20181;-77
2023/09/14 02:17:43;;;;;;;14.25;2.40;;;14.50;99.90;;;;;;5073075;28;20028;-77
2023/09/14 02:20:10;;;;;;;9.23;2.33;;;14.40;99.90;;;;;;5091812;28;20082;-76
2023/09/14 02:22:35;;;;;;;10.82;2.20;;;14.40;99.90;;;;;;5090634;28;20391;-76
2023/09/14 02:25:02;;;;;;;14.25;2.35;;;14.40;99.90;;;;;;5090919;28;20035;-76
2023/09/14 02:27:28;;;;;;;8.88;2.83;;;14.30;99.90;;;;;;5091560;28;20031;-76
2023/09/14 02:29:54;;;;;;;9.18;2.20;;;14.30;99.90;;;;;;5072774;28;20024;-78
2023/09/14 02:32:20;;;;;;;11.13;2.60;;;14.30;99.90;;;;;;5091317;28;20028;-76
2023/09/14 02:34:46;;;;;;;9.15;2.22;;;14.30;99.90;;;;;;5091233;28;20467;-77
2023/09/14 02:37:13;;;;;;;11.30;2.38;;;14.20;99.90;;;;;;5090759;28;20031;-76
2023/09/14 02:39:39;;;;;;;10.75;3.05;;;14.20;99.90;;;;;;5091615;28;20036;-77
2023/09/14 02:42:04;;;;;;;8.85;1.95;;;14.20;99.90;;;;;;5090923;28;20028;-77
2023/09/14 02:44:30;;;;;;;5.63;1.85;;;14.20;99.90;;;;;;5091560;28;20398;-77
2023/09/14 02:46:56;;;;;;;4.78;1.65;;;14.20;99.90;;;;;;5090052;28;20093;-77
2023/09/14 02:49:22;;;;;;;9.95;2.20;;;14.20;99.90;;;;;;5090531;28;20311;-77
2023/09/14 02:51:47;;;;;;;9.88;2.05;;;14.20;99.90;;;;;;5090078;28;20384;-77
2023/09/14 02:54:14;;;;;;;9.93;2.20;;;14.10;99.90;;;;;;5090250;28;20058;-77
2023/09/14 02:56:41;;;;;;;14.43;2.20;;;14.10;99.90;;;;;;5090272;28;20537;-77
2023/09/14 02:59:07;;;;;;;16.27;2.65;;;14.10;99.90;;;;;;5089891;28;20028;-77
2023/09/14 03:01:32;;;;;;;9.98;2.15;;;14.10;99.90;;;;;;5090168;28;20023;-77
2023/09/14 03:03:58;;;;;;;6.90;1.80;;;14.10;99.90;;;;;;5089714;28;20040;-77
2023/09/14 03:06:25;;;;;;;11.20;2.15;;;14.10;99.90;;;;;;5090223;28;20127;-77
2023/09/14 03:08:51;;;;;;;7.72;1.98;;;14.00;99.90;;;;;;5089417;28;20580;-75
2023/09/14 03:11:17;;;;;;;9.23;2.25;;;14.00;99.90;;;;;;5090031;28;20063;-77
2023/09/14 03:13:42;;;;;;;10.20;2.00;;;14.00;99.90;;;;;;5089990;28;20165;-78
2023/09/14 03:16:08;;;;;;;7.53;1.77;;;13.90;99.90;;;;;;5089998;28;20074;-77
2023/09/14 03:18:34;;;;;;;13.43;2.58;;;13.90;99.90;;;;;;5072384;28;20183;-77
2023/09/14 03:20:59;;;;;;;11.77;2.42;;;13.90;99.90;;;;;;5090193;28;20116;-77
2023/09/14 03:23:25;;;;;;;9.52;2.17;;;13.90;99.90;;;;;;5090843;28;20465;-77
2023/09/14 03:25:51;;;;;;;11.30;2.25;;;13.90;99.90;;;;;;5090255;28;20425;-77
2023/09/14 03:28:17;;;;;;;10.77;2.35;;;13.90;99.90;;;;;;5090267;28;20111;-77
2023/09/14 03:30:44;;;;;;;13.60;2.53;;;13.90;99.90;;;;;;5089628;28;20027;-78
2023/09/14 03:33:11;;;;;;;10.82;2.63;;;13.90;99.90;;;;;;5088348;28;20062;-77
2023/09/14 03:35:37;;;;;;;12.65;2.50;;;13.90;99.90;;;;;;5089802;28;20178;-76
2023/09/14 03:38:03;;;;;;;9.52;2.10;;;13.90;99.90;;;;;;5089372;28;20028;-76
2023/09/14 03:40:29;;;;;;;7.15;1.90;;;13.90;99.90;;;;;;5089658;28;20432;-76
2023/09/14 03:42:55;;;;;;;9.60;2.20;;;13.80;99.90;;;;;;5088984;28;20081;-76
2023/09/14 03:45:20;;;;;;;11.75;2.28;;;13.90;99.90;;;;;;5089866;28;20033;-75
2023/09/14 03:47:49;;;;;;;10.95;2.47;;;13.80;99.90;;;;;;5048227;28;1169013;-77
2023/09/14 03:50:15;;;;;;;6.25;1.95;;;13.80;99.90;;;;;;5090471;28;20123;-76
2023/09/14 03:52:40;;;;;;;14.48;2.63;;;13.80;99.90;;;;;;5090567;28;20107;-77
2023/09/14 03:55:06;;;;;;;8.45;2.10;;;13.80;99.90;;;;;;5090526;28;20032;-77
2023/09/14 03:57:32;;;;;;;10.98;2.45;;;13.70;99.90;;;;;;5072279;28;20024;-77
2023/09/14 03:59:58;;;;;;;12.35;2.22;;;13.70;99.90;;;;;;5089574;28;20055;-78
2023/09/14 04:02:24;;;;;;;7.65;2.10;;;13.70;99.90;;;;;;5090492;28;20069;-77
2023/09/14 04:04:50;;;;;;;12.45;2.30;;;13.70;99.90;;;;;;5089866;28;20418;-78
2023/09/14 04:07:16;;;;;;;9.88;2.00;;;13.60;99.90;;;;;;5071968;28;20077;-77
2023/09/14 04:09:42;;;;;;;10.95;2.40;;;13.60;99.90;;;;;;5090489;28;20028;-77
2023/09/14 04:12:08;;;;;;;14.00;2.90;;;13.60;99.90;;;;;;5089534;28;20043;-77
2023/09/14 04:14:35;;;;;;;12.30;2.72;;;13.60;99.90;;;;;;5090428;28;20035;-77
2023/09/14 04:17:01;;;;;;;9.05;2.00;;;13.60;99.90;;;;;;5089685;28;20028;-77
2023/09/14 04:19:28;;;;;;;11.13;2.65;;;13.60;99.90;;;;;;5072249;28;20455;-78
2023/09/14 04:21:55;;;;;;;6.72;2.20;;;13.60;99.90;;;;;;5071325;28;20032;-78
2023/09/14 04:24:20;;;;;;;7.38;2.22;;;13.50;99.90;;;;;;5090362;28;20431;-77
2023/09/14 04:26:46;;;;;;;9.70;2.42;;;13.50;99.90;;;;;;5089631;28;20207;-78
2023/09/14 04:29:13;;;;;;;14.75;2.33;;;13.50;99.90;;;;;;5089996;28;20047;-76
2023/09/14 04:31:40;;;;;;;12.50;2.65;;;13.40;99.90;;;;;;5089805;28;20028;-77
2023/09/14 04:34:06;;;;;;;13.85;2.20;;;13.40;99.90;;;;;;5089522;28;20028;-76
2023/09/14 04:36:32;;;;;;;13.20;2.50;;;13.40;99.90;;;;;;5090329;28;20020;-76
2023/09/14 04:39:00;;;;;;;14.20;2.70;;;13.40;99.90;;;;;;5089613;28;20052;-77
2023/09/14 04:41:25;;;;;;;12.43;2.92;;;13.40;99.90;;;;;;5090499;28;20028;-77
2023/09/14 04:43:51;;;;;;;17.75;2.70;;;13.30;99.90;;;;;;5089396;28;20044;-78
2023/09/14 04:46:17;;;;;;;8.88;2.40;;;13.30;99.90;;;;;;5075144;28;20052;-78
2023/09/14 04:48:43;;;;;;;11.10;2.38;;;13.30;99.90;;;;;;5093609;28;20028;-76
2023/09/14 04:51:08;;;;;;;12.52;3.13;;;13.30;99.90;;;;;;5093197;28;20595;-76
2023/09/14 04:53:34;;;;;;;10.55;2.17;;;13.20;99.90;;;;;;5093434;28;20028;-76
2023/09/14 04:56:00;;;;;;;11.27;2.63;;;13.20;99.90;;;;;;5092748;28;20031;-76
2023/09/14 04:58:26;;;;;;;14.88;2.95;;;13.20;99.90;;;;;;5092997;28;20028;-76
2023/09/14 05:00:52;;;;;;;16.77;2.90;;;13.10;99.90;;;;;;5092272;28;20365;-77
2023/09/14 05:03:18;;;;;;;16.60;2.95;;;13.20;99.90;;;;;;5092742;28;20107;-76
2023/09/14 05:05:50;;;;;;;18.25;3.10;;;13.10;99.90;;;;;;5093019;28;20028;-77
2023/09/14 05:08:16;;;;;;;11.80;2.40;;;13.10;99.90;;;;;;5093074;28;20043;-77
2023/09/14 05:10:41;;;;;;;12.63;2.35;;;13.10;99.90;;;;;;5074885;28;20109;-78
2023/09/14 05:13:07;;;;;;;15.05;2.92;;;13.10;99.90;;;;;;5092046;28;20024;-78
2023/09/14 05:15:33;;;;;;;13.18;2.60;;;13.10;99.90;;;;;;5092930;28;20485;-77
2023/09/14 05:17:59;;;;;;;15.27;2.83;;;13.10;99.90;;;;;;5092694;28;20058;-77
2023/09/14 05:20:25;;;;;;;14.55;2.70;;;13.10;99.90;;;;;;5092805;28;20154;-77
2023/09/14 05:22:50;;;;;;;9.95;3.15;;;13.10;99.90;;;;;;5092767;28;20028;-79
2023/09/14 05:25:16;;;;;;;15.05;3.08;;;13.10;99.90;;;;;;5074365;28;20101;-77
2023/09/14 05:27:42;;;;;;;17.67;3.70;;;13.10;99.90;;;;;;5092675;28;20114;-77
2023/09/14 05:30:09;;;;;;;13.10;2.58;;;13.10;99.90;;;;;;5092291;28;20103;-78
2023/09/14 05:32:39;;;;;;;14.77;2.78;;;13.10;99.90;;;;;;5092551;28;20020;-78
2023/09/14 05:35:06;;;;;;;17.83;2.83;;;13.10;99.90;;;;;;5073831;28;20424;-77
2023/09/14 05:37:33;;;;;;;14.27;2.95;;;13.10;99.90;;;;;;5074237;28;20024;-79
2023/09/14 05:39:59;;;;;;;11.88;3.03;;;13.00;99.90;;;;;;5091915;28;20032;-78
2023/09/14 05:42:25;;;;;;;17.98;3.13;;;13.10;99.90;;;;;;5092337;28;20067;-76
2023/09/14 05:44:50;;;;;;;12.40;2.47;;;13.10;99.90;;;;;;5092110;28;20028;-77
2023/09/14 05:47:16;;;;;;;8.95;2.45;;;13.10;99.90;;;;;;5091770;28;20561;-77
2023/09/14 05:49:44;;;;;;;14.75;2.88;;;13.00;99.90;;;;;;5092396;28;20024;-77
2023/09/14 05:52:09;;;;;;;9.68;3.40;;;13.00;99.90;;;;;;5091540;28;20409;-77
2023/09/14 05:54:36;;;;;;;8.88;3.13;;;13.00;99.90;;;;;;5092599;28;20043;-77
2023/09/14 05:57:03;;;;;;;13.27;2.63;;;13.00;99.90;;;;;;5090718;28;20384;-78
2023/09/14 05:59:28;;;;;;;13.57;3.30;;;13.00;99.90;;;;;;5074116;28;20077;-76
2023/09/14 06:01:54;;;;;;;14.63;2.80;;;13.00;99.90;;;;;;5091746;28;20103;-77
2023/09/14 06:04:20;;;;;;;11.52;3.38;;;13.00;99.90;;;;;;5091893;28;20518;-76
2023/09/14 06:06:46;;;;;;;13.10;2.42;;;13.00;99.90;;;;;;5092143;28;20028;-76
2023/09/14 06:09:12;;;;;;;9.32;2.70;;;13.00;99.90;;;;;;5091186;28;20112;-76
2023/09/14 06:11:38;;;;;;;14.18;3.17;;;13.00;99.90;;;;;;5091559;28;20024;-76
2023/09/14 06:14:04;;;;;;;11.43;2.60;;;13.00;99.90;;;;;;5091260;28;20059;-77
2023/09/14 06:16:29;;;;;;;9.82;2.50;;;13.10;99.90;;;;;;5092021;28;20024;-77
2023/09/14 06:18:55;;;;;;;10.68;3.28;;;13.10;99.90;;;;;;5091214;28;20032;-79
2023/09/14 06:21:21;;;;;;;9.45;2.38;;;13.20;99.90;;;;;;5091260;28;20024;-77
2023/09/14 06:23:46;;;;;;;16.08;2.67;;;13.30;99.90;;;;;;5091413;28;20044;-77
2023/09/14 06:26:13;;;;;;;6.68;2.33;;;13.30;99.90;;;;;;5091194;28;20028;-77
2023/09/14 06:28:39;;;;;;;8.05;2.38;;;13.40;99.90;;;;;;5091442;28;20020;-77
2023/09/14 06:31:04;;;;;;;11.82;2.67;;;13.50;99.90;;;;;;5091075;28;20027;-77
2023/09/14 06:33:30;;;;;;;7.55;2.67;;;13.50;99.90;;;;;;5091337;28;20039;-77
2023/09/14 06:35:56;;;;;;;9.02;2.75;;;13.50;99.90;;;;;;5073103;28;20028;-78
2023/09/14 06:38:21;;;;;;;11.00;2.92;;;13.50;99.90;;;;;;5091410;28;20052;-77
2023/09/14 06:40:47;;;;;;;13.93;2.78;;;13.50;99.90;;;;;;5072729;28;20024;-77
2023/09/14 06:43:13;;;;;;;12.73;2.50;;;13.60;99.90;;;;;;5090692;28;20020;-77
2023/09/14 06:45:39;;;;;;;9.40;2.40;;;13.50;99.90;;;;;;5090795;28;20365;-77
2023/09/14 06:48:05;;;;;;;9.52;2.90;;;13.50;99.90;;;;;;5090364;28;20051;-78
2023/09/14 06:50:31;;;;;;;8.80;2.90;;;13.60;99.90;;;;;;5073037;28;20020;-77
2023/09/14 06:52:57;;;;;;;9.70;2.53;;;13.60;99.90;;;;;;5090864;28;20421;-79
2023/09/14 06:55:22;;;;;;;13.35;2.60;;;13.70;99.90;;;;;;5072368;28;20036;-77
2023/09/14 06:57:48;;;;;;;14.73;3.05;;;13.90;99.90;;;;;;5072794;28;20059;-77
2023/09/14 07:00:15;;;;;;;10.93;2.88;;;13.90;99.90;;;;;;5090461;28;20372;-77
2023/09/14 07:02:42;;;;;;;17.02;2.88;;;14.10;99.90;;;;;;5072943;28;20028;-77
2023/09/14 07:05:11;;;;;;;6.55;2.45;;;14.20;99.90;;;;;;5089965;28;20066;-77
2023/09/14 07:07:41;;;;;;;11.15;2.75;;;14.40;99.90;;;;;;5090134;28;20439;-77
2023/09/14 07:10:08;;;;;;;12.93;2.75;;;14.60;99.90;;;;;;5089778;28;20032;-78
2023/09/14 07:12:35;;;;;;;7.07;2.15;;;14.80;99.90;;;;;;5091188;28;20089;-77
2023/09/14 07:15:02;;;;;;;7.35;2.42;;;14.90;99.90;;;;;;5089980;28;20051;-79
2023/09/14 07:17:28;;;;;;;9.70;2.60;;;15.10;99.90;;;;;;5090433;28;20036;-75
2023/09/14 07:19:53;;;;;;;6.00;2.20;;;15.30;99.90;;;;;;5090490;28;20028;-76
2023/09/14 07:22:20;;;;;;;13.13;2.25;;;15.40;99.90;;;;;;5090163;28;20055;-76
2023/09/14 07:24:46;;;;;;;8.90;2.75;;;15.50;99.90;;;;;;5090271;28;20089;-76
2023/09/14 07:27:13;;;;;;;6.30;1.95;;;15.60;99.90;;;;;;5089978;28;20486;-76
2023/09/14 07:29:39;;;;;;;9.77;2.03;;;15.70;99.90;;;;;;5090470;28;20323;-75
2023/09/14 07:32:05;;;;;;;8.52;1.90;;;15.70;99.90;;;;;;5090107;28;20027;-77
2023/09/14 07:34:31;;;;;;;9.73;2.00;;;15.70;99.90;;;;;;5089933;28;20064;-77
2023/09/14 07:36:57;;;;;;;6.00;1.60;;;15.70;99.90;;;;;;5089903;28;20081;-76
2023/09/14 07:39:23;;;;;;;4.93;1.52;;;15.60;99.90;;;;;;5090114;28;20483;-76
2023/09/14 07:41:55;;;;;;;8.18;1.90;;;15.70;99.90;;;;;;5090388;28;20051;-77
2023/09/14 07:44:21;;;;;;;8.43;2.03;;;15.70;99.90;;;;;;5089239;28;20042;-77
2023/09/14 07:46:46;;;;;;;9.80;2.10;;;15.70;99.90;;;;;;5090224;28;20052;-77
2023/09/14 07:49:12;;;;;;;12.68;2.08;;;15.70;99.90;;;;;;5089556;28;20020;-77
2023/09/14 07:51:38;;;;;;;7.10;1.70;;;15.60;99.90;;;;;;5090432;28;20032;-77
2023/09/14 07:54:04;;;;;;;6.82;1.65;;;15.60;99.90;;;;;;5089801;28;20111;-78
2023/09/14 07:56:29;;;;;;;9.85;2.03;;;15.60;99.90;;;;;;5072142;28;20070;-77
2023/09/14 07:58:56;;;;;;;6.97;1.65;;;15.60;99.90;;;;;;5090548;28;20024;-77
2023/09/14 08:01:22;;;;;;;8.80;2.10;;;15.60;99.90;;;;;;5089447;28;20028;-77
2023/09/14 08:03:48;;;;;;;9.07;2.33;;;15.60;99.90;;;;;;5090224;28;20035;-77
2023/09/14 08:06:15;;;;;;;4.60;1.77;;;15.60;99.90;;;;;;5089427;28;20035;-77
2023/09/14 08:08:41;;;;;;;6.63;1.75;;;15.60;99.90;;;;;;5090019;28;20115;-79
2023/09/14 08:11:06;;;;;;;9.27;2.53;;;15.60;99.90;;;;;;5071536;28;20170;-78
2023/09/14 08:13:32;;;;;;;3.65;1.63;;;15.60;99.90;;;;;;5090214;28;20115;-78
2023/09/14 08:16:03;;;;;;;7.75;1.98;;;15.60;99.90;;;;;;5090259;28;20046;-77
2023/09/14 08:18:29;;;;;;;6.53;1.50;;;15.70;99.90;;;;;;5090905;28;20070;-77
2023/09/14 08:20:55;;;;;;;5.82;1.92;;;15.70;99.90;;;;;;5094214;28;20097;-78
2023/09/14 08:23:20;;;;;;;4.43;1.65;;;15.80;99.90;;;;;;5093555;28;20073;-78
2023/09/14 08:25:47;;;;;;;5.28;1.60;;;15.80;99.90;;;;;;5094545;28;20073;-79
2023/09/14 08:28:17;;;;;;;15.98;2.35;;;15.80;99.90;;;;;;5094746;28;20028;-77
2023/09/14 08:30:44;;;;;;;8.55;1.98;;;15.70;99.90;;;;;;5094384;28;20020;-76
2023/09/14 08:33:13;;;;;;;5.35;1.40;;;15.70;99.90;;;;;;5075157;28;20032;-77
2023/09/14 08:35:39;;;;;;;9.45;1.80;;;15.90;99.90;;;;;;5093759;28;20060;-76
2023/09/14 08:38:06;;;;;;;8.75;2.50;;;16.00;99.90;;;;;;5093189;28;20028;-78
2023/09/14 08:40:33;;;;;;;5.60;1.60;;;16.00;99.90;;;;;;5093684;28;20388;-77
2023/09/14 08:43:03;;;;;;;6.43;1.95;;;16.10;99.90;;;;;;5093623;28;20028;-76
2023/09/14 08:45:31;;;;;;;9.98;1.95;;;16.00;99.90;;;;;;5092726;28;20046;-78
2023/09/14 08:48:02;;;;;;;7.15;1.50;;;16.10;99.90;;;;;;5093724;28;20048;-78
2023/09/14 08:50:30;;;;;;;4.82;2.05;;;16.20;99.90;;;;;;5093362;28;20063;-78
2023/09/14 08:52:56;;;;;;;3.33;1.52;;;16.20;99.90;;;;;;5093842;28;20024;-78
2023/09/14 08:55:24;;;;;;;6.43;1.75;;;16.20;99.90;;;;;;5093170;28;20348;-78
2023/09/14 08:57:51;;;;;;;7.20;1.40;;;16.30;99.90;;;;;;5093495;28;20127;-77
2023/09/14 09:00:17;;;;;;;6.13;1.52;;;16.20;99.90;;;;;;5092700;28;20028;-78
2023/09/14 09:02:49;;;;;;;5.50;1.27;;;16.30;99.90;;;;;;5093398;28;20077;-77
2023/09/14 09:05:16;;;;;;;8.23;1.75;;;16.30;99.90;;;;;;5092423;28;20507;-77
2023/09/14 09:07:43;;;;;;;9.65;1.83;;;16.40;99.90;;;;;;5093536;28;20032;-77
2023/09/14 09:10:25;;;;;;;7.15;1.58;;;16.40;99.90;;;;;;5092418;28;20035;-77
2023/09/14 09:12:54;;;;;;;7.45;1.45;;;16.50;99.90;;;;;;5093230;28;20020;-77
2023/09/14 09:15:22;;;;;;;7.53;1.35;;;16.70;99.90;;;;;;5092395;28;20038;-78
2023/09/14 09:17:53;;;;;;;8.10;1.40;;;16.80;99.90;;;;;;5092797;28;20073;-77
2023/09/14 09:20:22;;;;;;;6.60;1.73;;;16.80;99.90;;;;;;5092439;28;20295;-77
2023/09/14 09:22:50;;;;;;;5.90;1.60;;;16.80;99.90;;;;;;5092847;28;20417;-77
2023/09/14 09:25:17;;;;;;;11.43;2.17;;;16.90;99.90;;;;;;5092070;28;20142;-77
2023/09/14 09:27:44;;;;;;;3.00;1.35;;;17.00;99.90;;;;;;5092784;28;20067;-77
2023/09/14 09:30:10;;;;;;;6.18;1.75;;;17.20;99.90;;;;;;5092115;28;20073;-77
2023/09/14 09:32:42;;;;;;;6.07;1.95;;;17.10;99.90;;;;;;5092424;28;20101;-77
2023/09/14 09:35:22;;;;;;;4.95;1.17;;;17.20;99.90;;;;;;5092318;28;20050;-78
2023/09/14 09:37:50;;;;;;;7.38;1.42;;;17.30;99.90;;;;;;5092372;28;20024;-78
2023/09/14 09:40:17;;;;;;;5.97;1.80;;;17.30;99.90;;;;;;5091752;28;20024;-78
2023/09/14 09:42:44;;;;;;;4.75;1.40;;;17.30;99.90;;;;;;5092742;28;20072;-78
2023/09/14 09:45:11;;;;;;;7.20;1.90;;;17.30;99.90;;;;;;5091808;28;20074;-79
2023/09/14 09:47:38;;;;;;;4.50;1.35;;;17.30;99.90;;;;;;5092173;28;20131;-78
2023/09/14 09:50:12;;;;;;;6.55;1.98;;;17.40;99.90;;;;;;5092521;28;20032;-78
2023/09/14 09:52:44;;;;;;;7.63;2.00;;;17.60;99.90;;;;;;5093065;28;20024;-78
2023/09/14 09:55:25;;;;;;;9.20;1.65;;;17.60;99.90;;;;;;5091572;28;20035;-79
2023/09/14 09:57:55;;;;;;;9.07;1.50;;;17.50;99.90;;;;;;5092125;28;20028;-76
2023/09/14 10:00:26;;;;;;;10.00;2.00;;;17.60;99.90;;;;;;5091741;28;20134;-77
2023/09/14 10:02:54;;;;;;;5.93;1.67;;;17.50;99.90;;;;;;5092340;28;20555;-77
2023/09/14 10:05:39;;;;;;;6.75;1.50;;;17.60;99.90;;;;;;5091544;28;20154;-77
2023/09/14 10:08:14;;;;;;;7.50;2.08;;;17.70;99.90;;;;;;5073577;28;20165;-77
2023/09/14 10:10:40;;;;;;;5.65;1.27;;;17.80;99.90;;;;;;5091867;28;20054;-77
2023/09/14 10:13:16;;;;;;;6.13;1.50;;;18.00;99.90;;;;;;5091931;28;20081;-77
2023/09/14 10:15:42;;;;;;;8.52;1.40;;;18.10;99.90;;;;;;5091802;28;20032;-77
2023/09/14 10:18:08;;;;;;;5.10;1.52;;;18.20;99.90;;;;;;5092030;28;20093;-77
2023/09/14 10:20:34;;;;;;;5.65;1.48;;;18.20;99.90;;;;;;5091434;28;20055;-77
2023/09/14 10:23:01;;;;;;;6.53;1.55;;;18.20;99.90;;;;;;5091849;28;20047;-78
2023/09/14 10:25:28;;;;;;;7.38;1.50;;;18.20;99.90;;;;;;5091123;28;20044;-77
2023/09/14 10:27:53;;;;;;;5.82;1.60;;;18.20;99.90;;;;;;5092167;28;20455;-77
2023/09/14 10:30:20;;;;;;;7.45;2.05;;;18.30;99.90;;;;;;5073607;28;20051;-78
2023/09/14 10:32:53;;;;;;;3.53;1.30;;;18.20;99.90;;;;;;5091722;28;20046;-78
2023/09/14 10:35:20;;;;;;;8.35;1.73;;;18.20;99.90;;;;;;5091402;28;20100;-79
2023/09/14 10:37:47;;;;;;;5.63;1.55;;;18.00;99.90;;;;;;5073273;28;20155;-78
2023/09/14 10:40:14;;;;;;;7.60;1.58;;;18.00;99.90;;;;;;5090481;28;20461;-78
2023/09/14 10:42:41;;;;;;;8.95;1.60;;;17.90;99.90;;;;;;5072679;28;20111;-78
2023/09/14 10:45:11;;;;;;;6.38;1.40;;;17.80;99.90;;;;;;5091581;28;20032;-78
2023/09/14 10:47:50;;;;;;;5.35;1.70;;;17.80;99.90;;;;;;5090169;28;20056;-78
2023/09/14 10:50:19;;;;;;;6.03;2.13;;;17.80;99.90;;;;;;5090297;28;20110;-78
2023/09/14 10:52:45;;;;;;;3.65;1.42;;;17.80;99.90;;;;;;5090899;28;20217;-78
2023/09/14 10:55:11;;;;;;;7.25;1.77;;;17.90;99.90;;;;;;5090826;28;20032;-78
2023/09/14 10:57:41;;;;;;;7.00;1.80;;;17.90;99.90;;;;;;5090461;28;20028;-78
2023/09/14 11:00:08;;;;;;;3.10;1.20;;;17.80;99.90;;;;;;5090651;28;20032;-78
2023/09/14 11:02:41;;;;;;;5.50;1.42;;;17.80;99.90;;;;;;5090082;28;20020;-77
2023/09/14 11:05:48;;;;;;;4.95;1.25;;;17.60;99.90;;;;;;5090407;28;20114;-78
2023/09/14 11:08:15;;;;;;;6.35;1.70;;;17.70;99.90;;;;;;5089714;28;20024;-79
2023/09/14 11:11:04;;;;;;;7.70;1.63;;;17.70;99.90;;;;;;5089951;28;20402;-78
2023/09/14 11:13:33;;;;;;;7.88;1.50;;;17.80;99.90;;;;;;5089240;28;20043;-78
2023/09/14 11:16:25;;;;;;;3.90;1.40;;;17.80;99.90;;;;;;5090272;28;20032;-78
2023/09/14 11:18:53;;;;;;;5.38;1.30;;;17.70;99.90;;;;;;5085453;28;20101;-78
2023/09/14 11:21:34;;;;;;;6.57;1.50;;;17.80;99.90;;;;;;5089463;28;20043;-78
2023/09/14 11:24:02;;;;;;;5.65;1.23;;;17.70;99.90;;;;;;5090129;28;20043;-78
2023/09/14 11:26:38;;;;;;;4.65;1.45;;;17.80;99.90;;;;;;5089183;28;20085;-79
2023/09/14 11:29:05;;;;;;;2.88;1.27;;;17.80;99.90;;;;;;5089603;28;20023;-77
2023/09/14 11:31:35;;;;;;;5.03;1.77;;;17.80;99.90;;;;;;5089391;28;20028;-77
2023/09/14 11:34:07;;;;;;;6.22;1.48;;;17.70;99.90;;;;;;5089836;28;20108;-76
2023/09/14 11:36:34;;;;;;;2.95;1.15;;;17.80;99.90;;;;;;5089377;28;20093;-76
2023/09/14 11:39:09;;;;;;;5.47;1.75;;;17.70;99.90;;;;;;5089295;28;20020;-77
2023/09/14 11:41:40;;;;;;;4.60;1.38;;;17.70;99.90;;;;;;5090054;28;20122;-76
2023/09/14 11:44:07;;;;;;;3.38;1.25;;;17.80;99.90;;;;;;5090152;28;20035;-77
2023/09/14 11:46:37;;;;;;;5.00;1.50;;;17.90;99.90;;;;;;5089511;28;20509;-76
2023/09/14 11:49:04;;;;;;;6.38;1.30;;;18.00;99.90;;;;;;5090684;28;20140;-75
2023/09/14 11:51:30;;;;;;;4.05;1.10;;;18.00;99.90;;;;;;5090060;28;20473;-75
2023/09/14 11:53:56;;;;;;;6.10;1.50;;;18.00;99.90;;;;;;5090274;28;20024;-76
2023/09/14 11:56:25;;;;;;;3.72;1.30;;;18.00;99.90;;;;;;5093521;28;20031;-77
2023/09/14 11:58:51;;;;;;;4.15;1.30;;;18.00;99.90;;;;;;5093848;28;20380;-76
2023/09/14 12:01:18;;;;;;;8.30;2.00;;;18.00;99.90;;;;;;5075689;28;20032;-78
2023/09/14 12:03:44;;;;;;;5.47;1.40;;;17.90;99.90;;;;;;5094162;28;20028;-76
2023/09/14 12:06:10;;;;;;;2.72;1.30;;;17.90;99.90;;;;;;5076091;28;20027;-76
2023/09/14 12:08:44;;;;;;;4.05;1.20;;;17.90;99.90;;;;;;5093784;28;20776;-76
2023/09/14 12:11:10;;;;;;;4.50;1.00;;;17.90;99.90;;;;;;5094093;28;20023;-76
2023/09/14 12:13:35;;;;;;;3.00;1.30;;;17.90;99.90;;;;;;5093905;28;20250;-76
2023/09/14 12:16:03;;;;;;;3.22;1.30;;;17.90;99.90;;;;;;5093896;28;20061;-77
2023/09/14 12:18:40;;;;;;;5.22;1.48;;;17.90;99.90;;;;;;5093412;28;20036;-77
2023/09/14 12:21:08;;;;;;;4.63;1.48;;;17.80;99.90;;;;;;5094536;28;20024;-77
2023/09/14 12:23:38;;;;;;;4.15;1.58;;;17.90;99.90;;;;;;5093044;28;20024;-77
2023/09/14 12:26:05;;;;;;;2.72;1.25;;;17.90;99.90;;;;;;5094168;28;20067;-77
2023/09/14 12:28:31;;;;;;;2.90;0.95;;;18.00;99.90;;;;;;5093417;28;20028;-77
2023/09/14 12:30:56;;;;;;;3.17;0.95;;;18.00;99.90;;;;;;5093390;28;20030;-76
2023/09/14 12:33:22;;;;;;;3.95;1.00;;;18.10;99.90;;;;;;5093025;28;20028;-75
2023/09/14 12:35:48;;;;;;;2.70;1.10;;;18.20;99.90;;;;;;5093967;28;20028;-76
2023/09/14 12:38:14;;;;;;;4.65;1.13;;;18.30;99.90;;;;;;5093842;28;20024;-76
2023/09/14 12:40:40;;;;;;;5.05;1.58;;;18.40;99.90;;;;;;5093255;28;20134;-77
2023/09/14 12:43:07;;;;;;;3.10;1.15;;;18.40;99.90;;;;;;5093833;28;20110;-76
2023/09/14 12:45:33;;;;;;;2.60;1.08;;;18.50;99.90;;;;;;5092672;28;20364;-77